createdAt,value
2018-06-10T00:01:12.449Z,100994.89
2018-06-10T00:03:40.480Z,100994.31
2018-06-10T00:06:08.524Z,100992.10
2018-06-10T00:08:36.580Z,100985.67
2018-06-10T00:11:04.619Z,100990.89
2018-06-10T00:13:32.652Z,100988.68
2018-06-10T00:16:00.692Z,100987.06
2018-06-10T00:18:28.734Z,100982.63
2018-06-10T00:20:56.792Z,100978.43
2018-06-10T00:23:24.846Z,100973.59
2018-06-10T00:25:52.896Z,100972.78
2018-06-10T00:28:26.336Z,100973.19
2018-06-10T00:30:54.393Z,100973.79
2018-06-10T00:33:22.624Z,100972.36
2018-06-10T00:35:50.676Z,100983.81
2018-06-10T00:38:18.727Z,100991.42
2018-06-10T00:40:46.817Z,100981.78
2018-06-10T00:43:14.851Z,100976.16
2018-06-10T00:45:42.892Z,100968.33
2018-06-10T00:48:10.950Z,100960.50
2018-06-10T00:50:39.005Z,100954.03
2018-06-10T00:53:07.047Z,100955.81
2018-06-10T00:55:35.092Z,100956.00
2018-06-10T00:58:03.148Z,100960.61
2018-06-10T01:00:31.207Z,100958.98
2018-06-10T01:02:59.259Z,100957.98
2018-06-10T01:05:27.300Z,100955.35
2018-06-10T01:07:55.334Z,100951.73
2018-06-10T01:10:23.375Z,100954.50
2018-06-10T01:12:51.423Z,100950.06
2018-06-10T01:15:19.489Z,100954.08
2018-06-10T01:17:47.548Z,100950.23
2018-06-10T01:20:15.589Z,100938.99
2018-06-10T01:22:43.639Z,100934.38
2018-06-10T01:25:11.689Z,100928.55
2018-06-10T01:27:39.739Z,100929.76
2018-06-10T01:30:07.764Z,100933.74
2018-06-10T01:32:35.803Z,100935.95
2018-06-10T01:35:03.856Z,100941.97
2018-06-10T01:37:31.897Z,100934.73
2018-06-10T01:39:59.929Z,100939.34
2018-06-10T01:42:27.967Z,100941.14
2018-06-10T01:44:56.020Z,100938.52
2018-06-10T01:47:24.068Z,100942.31
2018-06-10T01:49:52.120Z,100939.09
2018-06-10T01:52:20.176Z,100937.88
2018-06-10T01:54:48.221Z,100939.09
2018-06-10T01:57:16.263Z,100928.86
2018-06-10T01:59:44.301Z,100924.80
2018-06-10T02:02:12.361Z,100925.20
2018-06-10T02:04:40.392Z,100920.77
2018-06-10T02:07:08.444Z,100922.77
2018-06-10T02:09:36.475Z,100923.00
2018-06-10T02:12:04.544Z,100928.86
2018-06-10T02:14:32.583Z,100924.03
2018-06-10T02:17:00.640Z,100922.03
2018-06-10T02:19:28.689Z,100917.47
2018-06-10T02:21:56.728Z,100922.27
2018-06-10T02:24:24.760Z,100918.48
2018-06-10T02:26:52.832Z,100911.47
2018-06-10T02:29:20.857Z,100912.28
2018-06-10T02:31:48.906Z,100910.69
2018-06-10T02:34:16.940Z,100902.88
2018-06-10T02:36:44.971Z,100902.69
2018-06-10T02:39:13.004Z,100900.70
2018-06-10T02:41:41.065Z,100891.29
2018-06-10T02:44:09.111Z,100891.88
2018-06-10T02:46:37.144Z,100898.30
2018-06-10T02:49:05.175Z,100894.50
2018-06-10T02:51:33.209Z,100896.27
2018-06-10T02:54:01.289Z,100893.87
2018-06-10T02:56:29.332Z,100888.26
2018-06-10T02:58:57.374Z,100881.60
2018-06-10T03:01:25.418Z,100884.80
2018-06-10T03:03:53.459Z,100883.00
2018-06-10T03:06:21.522Z,100878.38
2018-06-10T03:08:49.549Z,100883.41
2018-06-10T03:11:17.604Z,100881.61
2018-06-10T03:13:45.646Z,100877.03
2018-06-10T03:16:13.672Z,100871.64
2018-06-10T03:18:41.716Z,100874.87
2018-06-10T03:21:09.756Z,100874.88
2018-06-10T03:23:37.794Z,100876.90
2018-06-10T03:26:05.827Z,100869.70
2018-06-10T03:28:33.858Z,100874.72
2018-06-10T03:31:01.892Z,100869.52
2018-06-10T03:33:30.020Z,100873.32
2018-06-10T03:35:58.055Z,100882.15
2018-06-10T03:38:26.101Z,100878.75
2018-06-10T03:40:54.153Z,100869.33
2018-06-10T03:43:22.176Z,100869.52
2018-06-10T03:45:50.209Z,100866.48
2018-06-10T03:48:18.236Z,100861.09
2018-06-10T03:50:46.279Z,100858.28
2018-06-10T03:53:14.296Z,100859.47
2018-06-10T03:55:42.408Z,100861.91
2018-06-10T03:58:10.455Z,100862.69
2018-06-10T04:00:38.491Z,100862.09
2018-06-10T04:03:06.520Z,100860.91
2018-06-10T04:05:34.577Z,100854.48
2018-06-10T04:08:02.596Z,100859.91
2018-06-10T04:10:30.642Z,100866.70
2018-06-10T04:12:58.687Z,100861.31
2018-06-10T04:15:26.714Z,100866.52
2018-06-10T04:17:54.756Z,100870.36
2018-06-10T04:20:22.800Z,100858.72
2018-06-10T04:22:50.854Z,100858.91
2018-06-10T04:25:18.893Z,100859.12
2018-06-10T04:27:46.937Z,100861.13
2018-06-10T04:30:15.006Z,100866.36
2018-06-10T04:32:43.040Z,100863.14
2018-06-10T04:35:11.103Z,100870.16
2018-06-10T04:37:39.160Z,100870.78
2018-06-10T04:40:07.203Z,100868.38
2018-06-10T04:42:35.304Z,100864.57
2018-06-10T04:45:03.368Z,100872.21
2018-06-10T04:47:31.417Z,100876.42
2018-06-10T04:49:59.455Z,100876.64
2018-06-10T04:52:27.512Z,100876.45
2018-06-10T04:54:55.564Z,100870.20
2018-06-10T04:57:23.600Z,100875.22
2018-06-10T04:59:51.652Z,100874.22
2018-06-10T05:02:19.860Z,100871.63
2018-06-10T05:04:47.903Z,100873.84
2018-06-10T05:07:16.152Z,100880.67
2018-06-10T05:09:44.188Z,100890.28
2018-06-10T05:12:12.224Z,100893.09
2018-06-10T05:14:40.312Z,100889.27
2018-06-10T05:17:08.348Z,100882.47
2018-06-10T05:19:36.396Z,100885.46
2018-06-10T05:22:04.435Z,100884.86
2018-06-10T05:24:32.468Z,100879.05
2018-06-10T05:27:00.500Z,100872.01
2018-06-10T05:29:28.566Z,100877.25
2018-06-10T05:31:56.619Z,100882.46
2018-06-10T05:34:24.665Z,100878.43
2018-06-10T05:36:52.713Z,100875.64
2018-06-10T05:39:20.747Z,100868.20
2018-06-10T05:41:48.792Z,100870.61
2018-06-10T05:44:16.894Z,100863.80
2018-06-10T05:46:44.962Z,100862.97
2018-06-10T05:49:13.072Z,100873.41
2018-06-10T05:51:41.146Z,100886.86
2018-06-10T05:54:09.179Z,100884.67
2018-06-10T05:56:37.242Z,100866.80
2018-06-10T05:59:05.288Z,100869.00
2018-06-10T06:01:33.332Z,100869.98
2018-06-10T06:04:01.372Z,100868.77
2018-06-10T06:06:29.482Z,100873.81
2018-06-10T06:08:57.517Z,100884.86
2018-06-10T06:11:25.658Z,100897.51
2018-06-10T06:13:53.701Z,100906.94
2018-06-10T06:16:21.771Z,100916.58
2018-06-10T06:18:50.530Z,100916.16
2018-06-10T06:21:18.597Z,100924.81
2018-06-10T06:23:46.675Z,100921.02
2018-06-10T06:26:14.732Z,100918.78
2018-06-10T06:28:42.781Z,100912.96
2018-06-10T06:31:10.837Z,100910.73
2018-06-10T06:33:38.911Z,100911.13
2018-06-10T06:36:06.968Z,100909.13
2018-06-10T06:38:35.020Z,100892.05
2018-06-10T06:41:03.094Z,100893.45
2018-06-10T06:43:31.156Z,100889.41
2018-06-10T06:45:59.232Z,100900.28
2018-06-10T06:48:27.276Z,100911.13
2018-06-10T06:50:55.349Z,100906.09
2018-06-10T06:53:23.404Z,100894.45
2018-06-10T06:55:51.465Z,100902.28
2018-06-10T06:58:19.513Z,100915.55
2018-06-10T07:00:47.662Z,100916.95
2018-06-10T07:03:15.720Z,100909.50
2018-06-10T07:05:43.785Z,100918.14
2018-06-10T07:08:11.815Z,100930.00
2018-06-10T07:10:39.868Z,100918.94
2018-06-10T07:13:07.949Z,100923.75
2018-06-10T07:15:36.017Z,100921.56
2018-06-10T07:18:04.076Z,100926.16
2018-06-10T07:20:32.141Z,100925.77
2018-06-10T07:23:00.212Z,100923.19
2018-06-10T07:25:28.373Z,100920.75
2018-06-10T07:27:56.410Z,100920.98
2018-06-10T07:30:24.490Z,100914.55
2018-06-10T07:32:52.495Z,100923.80
2018-06-10T07:35:20.557Z,100926.40
2018-06-10T07:37:48.600Z,100922.98
2018-06-10T07:40:16.660Z,100924.81
2018-06-10T07:42:44.699Z,100916.97
2018-06-10T07:45:12.786Z,100916.97
2018-06-10T07:47:40.818Z,100913.94
2018-06-10T07:50:08.869Z,100912.15
2018-06-10T07:52:36.916Z,100914.34
2018-06-10T07:55:04.975Z,100913.14
2018-06-10T07:57:33.028Z,100909.72
2018-06-10T08:00:01.118Z,100912.73
2018-06-10T08:02:29.160Z,100903.05
2018-06-10T08:04:57.224Z,100903.84
2018-06-10T08:07:25.272Z,100905.63
2018-06-10T08:09:53.331Z,100919.27
2018-06-10T08:12:21.368Z,100930.91
2018-06-10T08:14:49.408Z,100936.14
2018-06-10T08:17:17.456Z,100939.14
2018-06-10T08:19:45.498Z,100943.34
2018-06-10T08:22:13.580Z,100953.98
2018-06-10T08:24:41.625Z,100965.83
2018-06-10T08:27:09.698Z,100965.25
2018-06-10T08:29:37.759Z,100968.47
2018-06-10T08:32:05.804Z,100972.93
2018-06-10T08:34:33.849Z,100974.94
2018-06-10T08:37:01.892Z,100970.51
2018-06-10T08:39:29.972Z,100976.09
2018-06-10T08:41:58.027Z,100984.94
2018-06-10T08:44:26.072Z,100989.77
2018-06-10T08:46:54.149Z,100982.72
2018-06-10T08:49:22.192Z,100990.80
2018-06-10T08:51:50.243Z,100996.05
2018-06-10T08:54:18.292Z,100992.26
2018-06-10T08:56:46.360Z,100994.88
2018-06-10T08:59:14.404Z,101000.52
2018-06-10T09:01:42.459Z,101013.81
2018-06-10T09:04:10.504Z,101007.77
2018-06-10T09:06:38.565Z,101010.19
2018-06-10T09:09:09.139Z,101005.38
2018-06-10T09:11:37.676Z,100998.94
2018-06-10T09:14:05.740Z,100996.70
2018-06-10T09:16:33.792Z,101003.33
2018-06-10T09:19:02.139Z,101001.12
2018-06-10T09:21:30.200Z,101003.13
2018-06-10T09:23:58.264Z,101008.77
2018-06-10T09:26:26.335Z,101018.39
2018-06-10T09:28:54.416Z,101013.55
2018-06-10T09:31:22.442Z,101007.13
2018-06-10T09:33:50.504Z,101006.34
2018-06-10T09:36:18.543Z,101004.13
2018-06-10T09:38:46.588Z,100995.88
2018-06-10T09:41:14.663Z,101004.13
2018-06-10T09:43:42.729Z,101002.72
2018-06-10T09:46:10.788Z,101007.52
2018-06-10T09:48:38.827Z,101005.72
2018-06-10T09:51:06.933Z,101001.53
2018-06-10T09:53:34.981Z,100993.90
2018-06-10T09:56:03.056Z,101000.73
2018-06-10T09:58:31.131Z,100994.51
2018-06-10T10:00:59.192Z,100985.64
2018-06-10T10:03:27.227Z,100984.05
2018-06-10T10:05:55.388Z,100994.08
2018-06-10T10:08:23.424Z,100996.11
2018-06-10T10:10:51.531Z,100993.70
2018-06-10T10:13:19.577Z,100999.31
2018-06-10T10:15:47.661Z,101005.55
2018-06-10T10:18:15.712Z,101003.55
2018-06-10T10:20:43.801Z,101001.97
2018-06-10T10:23:11.869Z,101012.41
2018-06-10T10:25:39.940Z,101005.38
2018-06-10T10:28:07.989Z,101015.42
2018-06-10T10:30:36.088Z,101017.62
2018-06-10T10:33:04.164Z,101031.88
2018-06-10T10:35:32.220Z,101033.47
2018-06-10T10:38:00.287Z,101046.31
2018-06-10T10:40:28.365Z,101054.16
2018-06-10T10:42:56.440Z,101053.90
2018-06-10T10:45:24.603Z,101060.13
2018-06-10T10:47:52.712Z,101057.70
2018-06-10T10:50:20.769Z,101052.91
2018-06-10T10:52:48.832Z,101062.56
2018-06-10T10:55:16.877Z,101065.97
2018-06-10T10:57:44.969Z,101066.46
2018-06-10T11:00:13.009Z,101055.47
2018-06-10T11:02:41.066Z,101043.25
2018-06-10T11:05:09.168Z,101042.09
2018-06-10T11:07:37.348Z,101038.52
2018-06-10T11:10:05.433Z,101037.22
2018-06-10T11:12:33.620Z,101034.82
2018-06-10T11:15:01.825Z,101037.89
2018-06-10T11:17:29.931Z,101039.78
2018-06-10T11:19:58.043Z,101041.06
2018-06-10T11:22:26.180Z,101043.63
2018-06-10T11:24:54.240Z,101046.34
2018-06-10T11:27:22.333Z,101045.84
2018-06-10T11:29:50.395Z,101034.78
2018-06-10T11:32:18.461Z,101035.19
2018-06-10T11:34:46.548Z,101032.14
2018-06-10T11:37:14.618Z,101028.95
2018-06-10T11:39:42.671Z,101032.14
2018-06-10T11:42:10.784Z,101020.02
2018-06-10T11:44:38.830Z,101018.89
2018-06-10T11:47:06.911Z,101016.69
2018-06-10T11:49:34.950Z,101015.48
2018-06-10T11:52:03.083Z,101006.97
2018-06-10T11:54:31.067Z,101003.55
2018-06-10T11:56:59.146Z,101002.42
2018-06-10T11:59:27.188Z,100997.05
2018-06-10T12:01:55.341Z,100987.75
2018-06-10T12:04:23.348Z,100990.08
2018-06-10T12:06:51.397Z,100976.06
2018-06-10T12:09:19.459Z,100962.11
2018-06-10T12:11:47.520Z,100957.70
2018-06-10T12:14:15.564Z,100955.58
2018-06-10T12:16:43.708Z,100950.84
2018-06-10T12:19:11.703Z,100945.11
2018-06-10T12:21:39.795Z,100941.77
2018-06-10T12:24:07.848Z,100931.05
2018-06-10T12:26:35.932Z,100933.20
2018-06-10T12:29:04.019Z,100922.73
2018-06-10T12:31:32.080Z,100922.19
2018-06-10T12:34:00.215Z,100918.84
2018-06-10T12:36:28.280Z,100906.96
2018-06-10T12:38:56.355Z,100901.74
2018-06-10T12:41:24.424Z,100896.18
2018-06-10T12:43:52.495Z,100898.63
2018-06-10T12:46:20.572Z,100894.70
2018-06-10T12:48:48.648Z,100890.16
2018-06-10T12:51:16.717Z,100889.94
2018-06-10T12:53:44.868Z,100877.91
2018-06-10T12:56:12.946Z,100881.67
2018-06-10T12:58:41.157Z,100882.66
2018-06-10T13:01:09.216Z,100886.08
2018-06-10T13:03:37.295Z,100899.04
2018-06-10T13:06:05.416Z,100897.95
2018-06-10T13:08:33.496Z,100895.92
2018-06-10T13:11:01.565Z,100903.31
2018-06-10T13:13:29.636Z,100899.92
2018-06-10T13:15:57.691Z,100906.84
2018-06-10T13:18:25.767Z,100907.29
2018-06-10T13:20:53.840Z,100904.05
2018-06-10T13:23:21.919Z,100905.02
2018-06-10T13:25:49.959Z,100906.09
2018-06-10T13:28:18.016Z,100905.80
2018-06-10T13:30:46.080Z,100910.64
2018-06-10T13:33:14.160Z,100918.89
2018-06-10T13:35:42.247Z,100927.75
2018-06-10T13:38:10.304Z,100924.38
2018-06-10T13:40:38.427Z,100919.56
2018-06-10T13:43:06.576Z,100925.36
2018-06-10T13:45:34.729Z,100926.95
2018-06-10T13:48:02.908Z,100926.44
2018-06-10T13:50:31.006Z,100927.45
2018-06-10T13:52:59.131Z,100936.23
2018-06-10T13:55:27.256Z,100941.63
2018-06-10T13:57:55.424Z,100942.20
2018-06-10T14:00:23.488Z,100946.92
2018-06-10T14:02:51.637Z,100950.52
2018-06-10T14:05:19.808Z,100951.05
2018-06-10T14:07:47.966Z,100960.80
2018-06-10T14:10:16.044Z,100963.26
2018-06-10T14:12:44.144Z,100968.90
2018-06-10T14:15:12.324Z,100960.52
2018-06-10T14:17:40.463Z,100963.89
2018-06-10T14:20:08.585Z,100967.06
2018-06-10T14:22:36.764Z,100962.95
2018-06-10T14:25:04.957Z,100957.83
2018-06-10T14:27:33.558Z,100957.71
2018-06-10T14:30:01.707Z,100957.47
2018-06-10T14:32:29.760Z,100961.11
2018-06-10T14:34:57.842Z,100964.95
2018-06-10T14:37:25.875Z,100956.58
2018-06-10T14:39:53.951Z,100957.83
2018-06-10T14:42:22.025Z,100956.73
2018-06-10T14:44:50.102Z,100956.05
2018-06-10T14:47:18.169Z,100952.12
2018-06-10T14:49:46.244Z,100950.91
2018-06-10T14:52:14.661Z,100948.52
2018-06-10T14:54:42.760Z,100948.28
2018-06-10T14:57:10.824Z,100948.43
2018-06-10T14:59:38.904Z,100942.89
2018-06-10T15:02:07.020Z,100950.97
2018-06-10T15:04:35.139Z,100950.82
2018-06-10T15:07:03.206Z,100953.17
2018-06-10T15:09:31.284Z,100950.06
2018-06-10T15:11:59.322Z,100945.36
2018-06-10T15:14:27.371Z,100952.80
2018-06-10T15:16:55.407Z,100944.08
2018-06-10T15:19:23.472Z,100944.96
2018-06-10T15:21:51.530Z,100945.45
2018-06-10T15:24:19.577Z,100949.23
2018-06-10T15:26:47.651Z,100947.49
2018-06-10T15:29:15.707Z,100953.41
2018-06-10T15:31:43.752Z,100949.78
2018-06-10T15:34:11.813Z,100952.37
2018-06-10T15:36:39.876Z,100951.55
2018-06-10T15:39:08.821Z,100958.94
2018-06-10T15:41:36.900Z,100956.06
2018-06-10T15:44:04.972Z,100947.05
2018-06-10T15:46:33.039Z,100953.23
2018-06-10T15:49:01.090Z,100959.74
2018-06-10T15:51:29.156Z,100953.78
2018-06-10T15:53:57.253Z,100959.05
2018-06-10T15:56:25.324Z,100961.28
2018-06-10T15:58:53.400Z,100961.83
2018-06-10T16:01:21.459Z,100967.97
2018-06-10T16:03:49.521Z,100968.71
2018-06-10T16:06:17.587Z,100968.63
2018-06-10T16:08:45.632Z,100966.20
2018-06-10T16:11:13.717Z,100972.15
2018-06-10T16:13:41.774Z,100973.84
2018-06-10T16:16:09.856Z,100978.90
2018-06-10T16:18:37.916Z,100973.36
2018-06-10T16:21:05.980Z,100979.16
2018-06-10T16:23:34.032Z,100977.43
2018-06-10T16:26:02.089Z,100978.23
2018-06-10T16:28:30.141Z,100982.48
2018-06-10T16:30:58.197Z,100973.33
2018-06-10T16:33:26.258Z,100985.30
2018-06-10T16:35:54.342Z,100979.50
2018-06-10T16:38:22.408Z,100985.61
2018-06-10T16:40:50.469Z,100982.09
2018-06-10T16:43:18.516Z,100975.89
2018-06-10T16:45:46.580Z,100987.37
2018-06-10T16:48:14.657Z,100980.36
2018-06-10T16:50:42.748Z,100982.59
2018-06-10T16:53:10.816Z,100977.75
2018-06-10T16:55:38.878Z,100981.55
2018-06-10T16:58:06.927Z,100985.34
2018-06-10T17:00:34.984Z,100975.83
2018-06-10T17:03:03.036Z,100982.04
2018-06-10T17:05:31.076Z,100982.84
2018-06-10T17:07:59.135Z,100981.11
2018-06-10T17:10:27.187Z,100980.53
2018-06-10T17:12:55.260Z,100983.73
2018-06-10T17:15:23.316Z,100983.13
2018-06-10T17:17:51.404Z,100985.78
2018-06-10T17:20:19.472Z,100979.00
2018-06-10T17:22:47.544Z,100985.86
2018-06-10T17:25:15.619Z,100976.25
2018-06-10T17:27:43.673Z,100977.30
2018-06-10T17:30:11.735Z,100972.91
2018-06-10T17:32:39.808Z,100978.23
2018-06-10T17:35:07.860Z,100981.12
2018-06-10T17:37:35.917Z,100986.02
2018-06-10T17:40:04.443Z,100985.25
2018-06-10T17:42:32.505Z,100982.91
2018-06-10T17:45:00.568Z,100979.72
2018-06-10T17:47:28.677Z,100981.38
2018-06-10T17:49:56.699Z,100983.23
2018-06-10T17:52:24.807Z,100983.28
2018-06-10T17:54:52.848Z,100984.10
2018-06-10T17:57:20.910Z,100981.53
2018-06-10T17:59:48.956Z,100989.50
2018-06-10T18:02:17.036Z,100978.56
2018-06-10T18:04:45.076Z,100988.56
2018-06-10T18:07:13.130Z,100990.48
2018-06-10T18:09:41.186Z,100998.08
2018-06-10T18:12:09.242Z,100988.67
2018-06-10T18:14:37.352Z,100990.91
2018-06-10T18:17:05.615Z,100989.33
2018-06-10T18:19:33.676Z,100993.37
2018-06-10T18:22:01.749Z,100990.55
2018-06-10T18:24:29.804Z,100997.67
2018-06-10T18:26:58.212Z,100999.77
2018-06-10T18:29:26.281Z,100999.77
2018-06-10T18:31:54.359Z,100999.02
2018-06-10T18:34:22.389Z,100994.61
2018-06-10T18:36:50.448Z,100997.84
2018-06-10T18:39:18.616Z,100994.64
2018-06-10T18:41:46.696Z,100998.50
2018-06-10T18:44:14.745Z,101000.13
2018-06-10T18:46:42.827Z,100996.09
2018-06-10T18:49:10.925Z,100999.11
2018-06-10T18:51:39.080Z,101006.14
2018-06-10T18:54:07.141Z,101001.33
2018-06-10T18:56:35.201Z,101008.77
2018-06-10T18:59:03.240Z,101009.39
2018-06-10T19:01:31.293Z,101011.40
2018-06-10T19:03:59.344Z,101014.20
2018-06-10T19:06:27.405Z,101017.24
2018-06-10T19:08:55.455Z,101019.02
2018-06-10T19:11:23.518Z,101027.64
2018-06-10T19:13:51.559Z,101029.44
2018-06-10T19:16:19.664Z,101038.06
2018-06-10T19:18:47.734Z,101033.85
2018-06-10T19:21:15.774Z,101037.66
2018-06-10T19:23:43.831Z,101041.09
2018-06-10T19:26:11.869Z,101033.23
2018-06-10T19:28:39.932Z,101039.26
2018-06-10T19:31:08.022Z,101042.26
2018-06-10T19:33:36.093Z,101048.69
2018-06-10T19:36:04.135Z,101040.23
2018-06-10T19:38:32.345Z,101048.84
2018-06-10T19:41:00.403Z,101048.43
2018-06-10T19:43:28.453Z,101048.39
2018-06-10T19:45:56.568Z,101058.39
2018-06-10T19:48:24.583Z,101063.34
2018-06-10T19:50:52.625Z,101068.33
2018-06-10T19:53:20.672Z,101061.69
2018-06-10T19:55:48.712Z,101068.25
2018-06-10T19:58:16.770Z,101070.05
2018-06-10T20:00:44.816Z,101073.03
2018-06-10T20:03:12.876Z,101072.44
2018-06-10T20:05:40.909Z,101076.25
2018-06-10T20:08:08.962Z,101077.24
2018-06-10T20:10:37.145Z,101084.03
2018-06-10T20:13:05.211Z,101090.67
2018-06-10T20:15:33.277Z,101091.69
2018-06-10T20:18:02.136Z,101089.89
2018-06-10T20:20:30.205Z,101091.28
2018-06-10T20:22:58.264Z,101089.27
2018-06-10T20:25:26.380Z,101088.65
2018-06-10T20:27:54.440Z,101093.48
2018-06-10T20:30:22.528Z,101094.27
2018-06-10T20:32:50.802Z,101104.30
2018-06-10T20:35:18.855Z,101109.11
2018-06-10T20:37:46.921Z,101118.17
2018-06-10T20:40:15.129Z,101114.38
2018-06-10T20:42:43.187Z,101120.99
2018-06-10T20:45:11.231Z,101119.98
2018-06-10T20:47:39.329Z,101126.78
2018-06-10T20:50:07.392Z,101125.36
2018-06-10T20:52:35.560Z,101131.14
2018-06-10T20:55:04.951Z,101125.84
2018-06-10T20:57:33.076Z,101123.80
2018-06-10T21:00:01.123Z,101131.61
2018-06-10T21:02:29.181Z,101144.39
2018-06-10T21:04:57.204Z,101143.16
2018-06-10T21:07:25.251Z,101152.58
2018-06-10T21:09:53.283Z,101149.95
2018-06-10T21:12:21.333Z,101153.39
2018-06-10T21:14:49.380Z,101150.02
2018-06-10T21:17:17.442Z,101147.63
2018-06-10T21:19:45.480Z,101146.81
2018-06-10T21:22:13.553Z,101151.82
2018-06-10T21:24:41.620Z,101151.82
2018-06-10T21:27:09.651Z,101153.59
2018-06-10T21:29:37.712Z,101155.56
2018-06-10T21:32:05.768Z,101156.74
2018-06-10T21:34:33.828Z,101153.32
2018-06-10T21:37:01.884Z,101145.69
2018-06-10T21:39:29.933Z,101145.05
2018-06-10T21:41:57.974Z,101140.38
2018-06-10T21:44:26.017Z,101152.97
2018-06-10T21:46:54.093Z,101148.93
2018-06-10T21:49:22.161Z,101139.51
2018-06-10T21:51:50.207Z,101141.30
2018-06-10T21:54:18.288Z,101141.05
2018-06-10T21:56:46.375Z,101144.20
2018-06-10T21:59:14.424Z,101138.95
2018-06-10T22:01:42.509Z,101137.86
2018-06-10T22:04:10.565Z,101131.22
2018-06-10T22:06:38.687Z,101135.98
2018-06-10T22:09:07.760Z,101128.91
2018-06-10T22:11:35.978Z,101130.88
2018-06-10T22:14:04.102Z,101135.05
2018-06-10T22:16:32.168Z,101131.37
2018-06-10T22:19:00.646Z,101125.31
2018-06-10T22:21:28.699Z,101119.22
2018-06-10T22:23:56.760Z,101121.41
2018-06-10T22:26:24.805Z,101128.53
2018-06-10T22:28:52.852Z,101140.74
2018-06-10T22:31:20.892Z,101131.03
2018-06-10T22:33:48.984Z,101131.96
2018-06-10T22:36:17.024Z,101129.55
2018-06-10T22:38:45.085Z,101132.08
2018-06-10T22:41:13.124Z,101123.41
2018-06-10T22:43:41.171Z,101129.36
2018-06-10T22:46:09.228Z,101129.13
2018-06-10T22:48:37.280Z,101129.91
2018-06-10T22:51:05.337Z,101133.17
2018-06-10T22:54:40.013Z,101135.11
2018-06-10T22:57:08.207Z,101130.14
2018-06-10T22:59:36.317Z,101129.32
2018-06-10T23:02:05.317Z,101132.50
2018-06-10T23:04:33.386Z,101129.70
2018-06-10T23:07:01.462Z,101128.51
2018-06-10T23:09:29.572Z,101135.73
2018-06-10T23:11:57.580Z,101133.52
2018-06-10T23:14:25.654Z,101141.33
2018-06-10T23:16:54.690Z,101136.75
2018-06-10T23:19:22.744Z,101135.19
2018-06-10T23:21:50.785Z,101143.24
2018-06-10T23:24:18.856Z,101136.91
2018-06-10T23:26:46.928Z,101138.50
2018-06-10T23:29:14.960Z,101142.27
2018-06-10T23:31:43.016Z,101133.45
2018-06-10T23:34:11.073Z,101139.00
2018-06-10T23:36:39.205Z,101128.98
2018-06-10T23:39:07.709Z,101135.19
2018-06-10T23:41:35.857Z,101132.31
2018-06-10T23:44:03.907Z,101134.53
2018-06-10T23:46:31.986Z,101144.72
2018-06-10T23:49:00.047Z,101148.33
2018-06-10T23:51:28.096Z,101142.73
2018-06-10T23:53:56.140Z,101147.28
2018-06-10T23:56:24.177Z,101142.66
2018-06-10T23:58:52.221Z,101136.27
